createdAt,value
2018-02-05T00:00:28.983Z,74.52
2018-02-05T00:02:56.471Z,75.51
2018-02-05T00:05:23.936Z,74.95
2018-02-05T00:07:51.414Z,75.09
2018-02-05T00:10:18.878Z,75.85
2018-02-05T00:12:46.370Z,75.49
2018-02-05T00:15:13.834Z,76.49
2018-02-05T00:17:41.402Z,76.42
2018-02-05T00:20:08.867Z,76.58
2018-02-05T00:22:36.361Z,76.09
2018-02-05T00:25:03.839Z,75.66
2018-02-05T00:27:31.343Z,75.63
2018-02-05T00:29:58.807Z,75.53
2018-02-05T00:32:26.299Z,75.75
2018-02-05T00:34:53.771Z,76.31
2018-02-05T00:37:21.246Z,76.83
2018-02-05T00:39:48.726Z,76.82
2018-02-05T00:42:16.187Z,77.00
2018-02-05T00:44:43.674Z,77.22
2018-02-05T00:47:11.147Z,77.86
2018-02-05T00:49:38.627Z,77.72
2018-02-05T00:52:06.107Z,77.44
2018-02-05T00:54:33.590Z,77.34
2018-02-05T00:57:01.080Z,77.52
2018-02-05T00:59:28.567Z,76.90
2018-02-05T01:01:56.030Z,77.21
2018-02-05T01:04:23.525Z,76.91
2018-02-05T01:06:50.999Z,77.65
2018-02-05T01:09:18.492Z,77.93
2018-02-05T01:11:45.959Z,77.42
2018-02-05T01:14:13.447Z,76.95
2018-02-05T01:16:40.924Z,78.43
2018-02-05T01:19:08.415Z,77.67
2018-02-05T01:21:35.882Z,78.05
2018-02-05T01:24:03.370Z,77.90
2018-02-05T01:26:30.835Z,78.05
2018-02-05T01:28:58.322Z,78.27
2018-02-05T01:31:25.800Z,78.72
2018-02-05T01:33:53.287Z,78.29
2018-02-05T01:36:20.766Z,78.22
2018-02-05T01:38:48.255Z,78.45
2018-02-05T01:41:15.719Z,78.64
2018-02-05T01:43:43.227Z,79.26
2018-02-05T01:46:10.696Z,79.44
2018-02-05T01:48:38.182Z,79.76
2018-02-05T01:51:05.653Z,79.60
2018-02-05T01:53:33.151Z,79.00
2018-02-05T01:56:01.070Z,79.47
2018-02-05T01:58:28.607Z,80.20
2018-02-05T02:00:56.077Z,80.32
2018-02-05T02:03:23.546Z,80.63
2018-02-05T02:05:51.047Z,80.51
2018-02-05T02:08:18.523Z,80.81
2018-02-05T02:10:46.019Z,80.26
2018-02-05T02:13:13.495Z,79.75
2018-02-05T02:15:40.986Z,80.24
2018-02-05T02:18:08.450Z,79.37
2018-02-05T02:20:35.938Z,78.30
2018-02-05T02:23:03.407Z,78.62
2018-02-05T02:25:30.892Z,78.67
2018-02-05T02:27:58.354Z,78.92
2018-02-05T02:30:25.830Z,78.54
2018-02-05T02:32:53.292Z,78.11
2018-02-05T02:35:20.767Z,78.90
2018-02-05T02:37:48.231Z,77.86
2018-02-05T02:40:15.711Z,78.16
2018-02-05T02:42:43.169Z,78.03
2018-02-05T02:45:10.655Z,77.83
2018-02-05T02:47:38.118Z,77.85
2018-02-05T02:50:05.595Z,77.08
2018-02-05T02:52:33.056Z,77.26
2018-02-05T02:55:00.543Z,77.21
2018-02-05T02:57:28.042Z,76.85
2018-02-05T02:59:55.527Z,76.93
2018-02-05T03:02:22.990Z,77.23
2018-02-05T03:04:50.462Z,77.59
2018-02-05T03:07:17.928Z,77.05
2018-02-05T03:09:45.426Z,76.86
2018-02-05T03:12:12.886Z,77.27
2018-02-05T03:14:40.361Z,76.88
2018-02-05T03:17:07.885Z,77.90
2018-02-05T03:19:35.370Z,78.02
2018-02-05T03:22:02.825Z,77.74
2018-02-05T03:24:30.305Z,77.39
2018-02-05T03:26:57.786Z,77.07
2018-02-05T03:29:25.243Z,76.91
2018-02-05T03:31:52.723Z,76.69
2018-02-05T03:34:20.190Z,76.88
2018-02-05T03:36:47.666Z,76.41
2018-02-05T03:39:15.124Z,76.62
2018-02-05T03:41:42.598Z,76.39
2018-02-05T03:44:10.059Z,76.85
2018-02-05T03:46:37.546Z,76.34
2018-02-05T03:49:05.015Z,76.76
2018-02-05T03:51:32.494Z,76.91
2018-02-05T03:53:59.952Z,77.01
2018-02-05T03:56:27.430Z,78.04
2018-02-05T03:58:54.890Z,77.58
2018-02-05T04:01:22.370Z,77.97
2018-02-05T04:03:49.841Z,77.48
2018-02-05T04:06:17.331Z,78.38
2018-02-05T04:08:44.795Z,77.56
2018-02-05T04:11:12.270Z,78.18
2018-02-05T04:13:39.736Z,77.85
2018-02-05T04:16:07.216Z,77.22
2018-02-05T04:18:34.684Z,78.05
2018-02-05T04:21:02.167Z,77.73
2018-02-05T04:23:29.622Z,77.25
2018-02-05T04:25:57.111Z,77.14
2018-02-05T04:28:24.571Z,77.39
2018-02-05T04:30:52.054Z,76.91
2018-02-05T04:33:19.539Z,77.38
2018-02-05T04:35:47.015Z,76.88
2018-02-05T04:38:14.475Z,77.07
2018-02-05T04:40:41.951Z,76.97
2018-02-05T04:43:09.406Z,76.91
2018-02-05T04:45:36.892Z,77.09
2018-02-05T04:48:04.368Z,77.61
2018-02-05T04:50:31.822Z,77.46
2018-02-05T04:52:59.307Z,77.42
2018-02-05T04:55:26.770Z,77.69
2018-02-05T04:57:54.248Z,77.94
2018-02-05T05:00:21.735Z,77.37
2018-02-05T05:02:49.207Z,76.82
2018-02-05T05:05:16.671Z,77.21
2018-02-05T05:07:44.146Z,77.00
2018-02-05T05:10:11.602Z,77.45
2018-02-05T05:12:39.074Z,77.15
2018-02-05T05:15:06.530Z,77.18
2018-02-05T05:17:34.002Z,76.34
2018-02-05T05:20:01.459Z,77.20
2018-02-05T05:22:28.934Z,77.29
2018-02-05T05:24:56.389Z,77.13
2018-02-05T05:27:23.876Z,76.87
2018-02-05T05:29:51.344Z,77.21
2018-02-05T05:32:18.827Z,77.80
2018-02-05T05:34:46.282Z,77.65
2018-02-05T05:37:13.770Z,77.65
2018-02-05T05:39:41.222Z,77.12
2018-02-05T05:42:08.714Z,77.27
2018-02-05T05:44:36.174Z,77.06
2018-02-05T05:47:03.650Z,76.86
2018-02-05T05:49:31.107Z,77.62
2018-02-05T05:51:58.591Z,77.62
2018-02-05T05:54:26.071Z,77.66
2018-02-05T05:56:53.555Z,77.34
2018-02-05T05:59:21.024Z,77.74
2018-02-05T06:01:48.511Z,77.93
2018-02-05T06:04:15.975Z,77.65
2018-02-05T06:06:43.468Z,78.28
2018-02-05T06:09:10.935Z,78.16
2018-02-05T06:11:38.403Z,77.39
2018-02-05T06:14:05.879Z,77.41
2018-02-05T06:16:33.339Z,77.55
2018-02-05T06:19:00.819Z,77.38
2018-02-05T06:21:28.285Z,77.20
2018-02-05T06:23:55.775Z,77.96
2018-02-05T06:26:23.239Z,77.59
2018-02-05T06:28:50.719Z,77.72
2018-02-05T06:31:18.171Z,78.04
2018-02-05T06:33:45.642Z,77.52
2018-02-05T06:36:13.115Z,77.26
2018-02-05T06:38:40.600Z,77.08
2018-02-05T06:41:08.057Z,77.04
2018-02-05T06:43:35.539Z,77.30
2018-02-05T06:46:03.004Z,77.60
2018-02-05T06:48:30.474Z,77.11
2018-02-05T06:51:09.763Z,76.95
2018-02-05T06:53:48.944Z,77.68
2018-02-05T06:56:24.266Z,77.30
2018-02-05T06:58:51.747Z,77.89
2018-02-05T07:01:19.210Z,78.37
2018-02-05T07:03:46.687Z,77.87
2018-02-05T07:06:14.478Z,78.37
2018-02-05T07:08:41.973Z,78.34
2018-02-05T07:11:09.443Z,78.99
2018-02-05T07:13:36.928Z,79.17
2018-02-05T07:16:04.404Z,80.28
2018-02-05T07:18:31.887Z,80.64
2018-02-05T07:20:59.347Z,80.24
2018-02-05T07:23:26.826Z,80.73
2018-02-05T07:25:54.295Z,80.69
2018-02-05T07:28:21.775Z,80.88
2018-02-05T07:30:49.242Z,81.16
2018-02-05T07:33:16.735Z,81.22
2018-02-05T07:35:44.211Z,81.59
2018-02-05T07:38:11.702Z,81.19
2018-02-05T07:40:39.179Z,81.48
2018-02-05T07:43:06.676Z,81.22
2018-02-05T07:45:34.147Z,80.91
2018-02-05T07:48:01.615Z,81.22
2018-02-05T07:50:29.104Z,81.07
2018-02-05T07:52:56.571Z,81.31
2018-02-05T07:55:24.069Z,80.93
2018-02-05T07:57:51.546Z,81.25
2018-02-05T08:00:19.027Z,81.35
2018-02-05T08:02:46.497Z,80.54
2018-02-05T08:05:13.980Z,79.99
2018-02-05T08:07:41.442Z,80.66
2018-02-05T08:10:08.923Z,80.33
2018-02-05T08:12:36.396Z,80.28
2018-02-05T08:15:03.877Z,79.51
2018-02-05T08:17:31.350Z,78.69
2018-02-05T08:19:58.907Z,78.27
2018-02-05T08:22:26.370Z,78.16
2018-02-05T08:24:53.859Z,78.00
2018-02-05T08:27:21.318Z,77.28
2018-02-05T08:29:48.811Z,77.00
2018-02-05T08:32:16.273Z,76.50
2018-02-05T08:34:43.749Z,76.56
2018-02-05T08:37:11.199Z,76.48
2018-02-05T08:39:38.680Z,76.54
2018-02-05T08:42:06.142Z,76.09
2018-02-05T08:44:33.614Z,75.40
2018-02-05T08:47:01.074Z,75.45
2018-02-05T08:49:28.554Z,75.75
2018-02-05T08:51:56.016Z,76.21
2018-02-05T08:54:23.494Z,75.66
2018-02-05T08:56:50.950Z,75.11
2018-02-05T08:59:18.431Z,75.74
2018-02-05T09:01:45.891Z,75.07
2018-02-05T09:04:13.358Z,74.68
2018-02-05T09:06:40.820Z,74.71
2018-02-05T09:09:08.283Z,74.48
2018-02-05T09:11:35.763Z,74.57
2018-02-05T09:14:03.222Z,73.91
2018-02-05T09:16:30.707Z,74.35
2018-02-05T09:18:58.171Z,74.20
2018-02-05T09:21:25.642Z,74.29
2018-02-05T09:23:53.110Z,73.50
2018-02-05T09:26:20.592Z,74.10
2018-02-05T09:28:48.055Z,72.56
2018-02-05T09:31:15.531Z,74.46
2018-02-05T09:33:42.996Z,74.31
2018-02-05T09:36:10.471Z,73.70
2018-02-05T09:38:37.950Z,74.52
2018-02-05T09:41:05.439Z,73.40
2018-02-05T09:43:33.357Z,74.45
2018-02-05T09:46:00.866Z,73.06
2018-02-05T09:48:28.328Z,72.64
2018-02-05T09:50:55.820Z,71.79
2018-02-05T09:53:23.283Z,71.57
2018-02-05T09:55:50.762Z,72.73
2018-02-05T09:58:18.221Z,71.66
2018-02-05T10:00:47.690Z,71.78
2018-02-05T10:03:15.151Z,71.44
2018-02-05T10:05:42.634Z,71.21
2018-02-05T10:08:10.086Z,71.80
2018-02-05T10:10:37.575Z,71.44
2018-02-05T10:13:05.039Z,70.22
2018-02-05T10:15:32.513Z,69.76
2018-02-05T10:17:59.970Z,71.40
2018-02-05T10:20:27.446Z,70.90
2018-02-05T10:25:23.146Z,71.02
2018-02-05T10:27:50.602Z,70.82
2018-02-05T10:30:18.080Z,70.80
2018-02-05T10:32:45.543Z,69.83
2018-02-05T10:35:13.042Z,71.36
2018-02-05T10:37:40.531Z,69.79
2018-02-05T10:40:07.987Z,70.54
2018-02-05T10:42:35.466Z,69.33
2018-02-05T10:45:02.932Z,69.08
2018-02-05T10:47:30.410Z,69.49
2018-02-05T10:49:57.878Z,67.52
2018-02-05T10:52:25.352Z,68.66
2018-02-05T10:54:52.811Z,68.80
2018-02-05T10:57:20.287Z,67.41
2018-02-05T10:59:47.749Z,69.27
2018-02-05T11:02:15.754Z,67.15
2018-02-05T11:04:43.222Z,66.82
2018-02-05T11:07:10.702Z,67.09
2018-02-05T11:09:38.155Z,67.12
2018-02-05T11:12:05.635Z,67.86
2018-02-05T11:14:33.096Z,67.54
2018-02-05T11:17:00.580Z,66.93
2018-02-05T11:19:28.046Z,67.83
2018-02-05T11:21:55.546Z,67.30
2018-02-05T11:24:23.023Z,66.81
2018-02-05T11:26:50.524Z,67.21
2018-02-05T11:29:17.990Z,68.09
2018-02-05T11:31:45.475Z,67.66
2018-02-05T11:34:13.007Z,67.62
2018-02-05T11:36:40.487Z,67.24
2018-02-05T11:41:34.787Z,67.83
2018-02-05T11:44:02.251Z,66.96
2018-02-05T11:46:29.732Z,66.22
2018-02-05T11:48:57.193Z,66.08
2018-02-05T11:51:24.691Z,65.74
2018-02-05T11:53:52.151Z,65.81
2018-02-05T11:56:19.630Z,65.70
2018-02-05T11:58:47.086Z,65.13
2018-02-05T12:01:14.546Z,65.03
2018-02-05T12:03:42.046Z,65.64
2018-02-05T12:06:09.535Z,64.27
2018-02-05T12:08:37.343Z,64.33
2018-02-05T12:11:04.806Z,63.73
2018-02-05T12:13:32.288Z,63.36
2018-02-05T12:15:59.756Z,64.17
2018-02-05T12:18:27.231Z,64.58
2018-02-05T12:20:54.691Z,63.78
2018-02-05T12:23:22.174Z,61.86
2018-02-05T12:25:49.635Z,63.52
2018-02-05T12:28:17.106Z,63.24
2018-02-05T12:30:44.567Z,64.66
2018-02-05T12:33:12.955Z,63.50
2018-02-05T12:35:40.448Z,62.44
2018-02-05T12:38:07.919Z,61.84
2018-02-05T12:40:35.375Z,61.90
2018-02-05T12:43:02.858Z,62.60
2018-02-05T12:45:30.323Z,61.42
2018-02-05T12:47:57.807Z,62.60
2018-02-05T12:50:25.271Z,61.35
2018-02-05T12:52:52.755Z,62.48
2018-02-05T12:55:20.209Z,60.97
2018-02-05T12:57:47.688Z,61.25
2018-02-05T13:03:41.862Z,60.62
2018-02-05T13:06:09.711Z,59.48
2018-02-05T13:08:37.187Z,62.26
2018-02-05T13:11:04.753Z,60.76
2018-02-05T13:13:32.228Z,58.59
2018-02-05T13:15:59.688Z,59.32
2018-02-05T13:18:27.227Z,57.37
2018-02-05T13:20:54.643Z,55.61
2018-02-05T13:23:22.116Z,56.68
2018-02-05T13:25:49.575Z,57.24
2018-02-05T13:28:17.057Z,58.12
2018-02-05T13:30:44.515Z,56.22
2018-02-05T13:33:11.994Z,57.71
2018-02-05T13:35:39.619Z,55.01
2018-02-05T13:38:07.887Z,57.31
2018-02-05T13:40:35.353Z,55.34
2018-02-05T13:43:02.842Z,55.16
2018-02-05T13:45:30.300Z,55.07
2018-02-05T13:47:57.775Z,53.31
2018-02-05T13:50:25.223Z,54.02
2018-02-05T13:52:52.719Z,52.54
2018-02-05T13:55:20.207Z,51.65
2018-02-05T13:57:47.691Z,52.01
2018-02-05T14:00:15.867Z,50.26
2018-02-05T14:02:43.323Z,54.00
2018-02-05T14:05:10.829Z,55.02
2018-02-05T14:07:38.274Z,51.30
2018-02-05T14:10:05.744Z,49.24
2018-02-05T14:12:33.201Z,46.21
2018-02-05T14:15:00.676Z,44.89
2018-02-05T14:17:28.134Z,43.47
2018-02-05T14:19:55.611Z,45.70
2018-02-05T14:22:23.121Z,43.39
2018-02-05T14:24:50.618Z,43.03
2018-02-05T14:27:18.086Z,41.86
2018-02-05T14:29:45.587Z,41.83
2018-02-05T14:32:13.042Z,41.99
2018-02-05T14:34:40.531Z,42.20
2018-02-05T14:37:07.989Z,42.20
2018-02-05T14:39:35.481Z,41.07
2018-02-05T14:42:02.941Z,43.30
2018-02-05T14:44:30.423Z,45.90
2018-02-05T14:46:57.882Z,41.54
2018-02-05T14:49:25.363Z,40.51
2018-02-05T14:51:52.815Z,42.96
2018-02-05T14:54:20.298Z,41.34
2018-02-05T14:56:47.762Z,42.48
2018-02-05T14:59:15.250Z,42.09
2018-02-05T15:01:42.707Z,42.93
2018-02-05T15:04:10.191Z,41.17
2018-02-05T15:06:37.644Z,42.28
2018-02-05T15:09:05.116Z,44.21
2018-02-05T15:11:32.575Z,46.29
2018-02-05T15:14:00.086Z,47.62
2018-02-05T15:16:27.531Z,49.21
2018-02-05T15:18:55.012Z,50.24
2018-02-05T15:21:22.470Z,51.93
2018-02-05T15:23:49.990Z,51.82
2018-02-05T15:26:17.458Z,53.85
2018-02-05T15:28:44.910Z,54.54
2018-02-05T15:31:12.379Z,56.05
2018-02-05T15:33:39.855Z,56.88
2018-02-05T15:36:07.413Z,56.89
2018-02-05T15:38:34.862Z,58.77
2018-02-05T15:41:02.338Z,58.89
2018-02-05T15:43:29.795Z,59.19
2018-02-05T15:45:57.280Z,59.83
2018-02-05T15:48:24.735Z,61.79
2018-02-05T15:50:52.215Z,62.37
2018-02-05T15:53:19.668Z,60.35
2018-02-05T15:55:47.378Z,62.99
2018-02-05T15:58:14.826Z,64.79
2018-02-05T16:00:42.304Z,64.31
2018-02-05T16:03:09.755Z,65.39
2018-02-05T16:05:37.240Z,65.71
2018-02-05T16:08:04.691Z,66.53
2018-02-05T16:10:32.167Z,67.92
2018-02-05T16:12:59.630Z,69.29
2018-02-05T16:15:27.110Z,69.35
2018-02-05T16:17:54.566Z,70.46
2018-02-05T16:20:22.071Z,71.13
2018-02-05T16:22:49.527Z,70.41
2018-02-05T16:25:16.994Z,70.39
2018-02-05T16:27:44.455Z,70.57
2018-02-05T16:30:11.927Z,71.38
2018-02-05T16:32:39.379Z,70.97
2018-02-05T16:35:06.863Z,71.34
2018-02-05T16:37:34.326Z,70.59
2018-02-05T16:40:01.807Z,70.92
2018-02-05T16:42:29.271Z,72.01
2018-02-05T16:44:56.763Z,71.40
2018-02-05T16:47:24.223Z,71.38
2018-02-05T16:49:51.746Z,71.84
2018-02-05T16:52:19.203Z,72.60
2018-02-05T16:54:46.658Z,71.96
2018-02-05T16:57:14.128Z,71.44
2018-02-05T16:59:41.585Z,71.61
2018-02-05T17:02:09.060Z,71.40
2018-02-05T17:04:36.506Z,72.80
2018-02-05T17:07:03.978Z,72.28
2018-02-05T17:09:31.431Z,72.70
2018-02-05T17:11:58.903Z,72.27
2018-02-05T17:14:26.371Z,72.21
2018-02-05T17:16:53.851Z,73.33
2018-02-05T17:19:21.308Z,72.95
2018-02-05T17:21:48.792Z,73.51
2018-02-05T17:24:16.262Z,72.99
2018-02-05T17:26:43.747Z,72.97
2018-02-05T17:29:11.203Z,73.74
2018-02-05T17:31:38.675Z,72.81
2018-02-05T17:34:06.140Z,73.75
2018-02-05T17:36:33.623Z,73.50
2018-02-05T17:39:01.074Z,73.61
2018-02-05T17:41:28.555Z,73.12
2018-02-05T17:43:56.015Z,73.11
2018-02-05T17:46:23.499Z,74.06
2018-02-05T17:48:50.963Z,73.67
2018-02-05T17:51:18.435Z,73.76
2018-02-05T17:53:45.890Z,74.34
2018-02-05T17:56:13.366Z,74.52
2018-02-05T17:58:40.818Z,73.95
2018-02-05T18:01:08.299Z,74.32
2018-02-05T18:03:35.753Z,74.10
2018-02-05T18:06:03.243Z,74.27
2018-02-05T18:08:30.700Z,74.77
2018-02-05T18:10:58.182Z,74.20
2018-02-05T18:13:25.635Z,75.30
2018-02-05T18:15:53.118Z,75.47
2018-02-05T18:18:20.578Z,75.06
2018-02-05T18:20:48.042Z,75.48
2018-02-05T18:23:15.530Z,75.21
2018-02-05T18:25:42.987Z,75.96
2018-02-05T18:28:10.462Z,76.39
2018-02-05T18:30:37.931Z,76.20
2018-02-05T18:33:05.411Z,76.36
2018-02-05T18:35:32.891Z,75.83
2018-02-05T18:38:00.367Z,77.01
2018-02-05T18:40:27.834Z,76.65
2018-02-05T18:42:55.311Z,77.36
2018-02-05T18:45:22.778Z,77.91
2018-02-05T18:47:50.497Z,78.21
2018-02-05T18:50:17.974Z,78.29
2018-02-05T18:52:45.463Z,76.99
2018-02-05T18:55:12.964Z,77.66
2018-02-05T18:57:40.443Z,77.67
2018-02-05T19:00:19.896Z,77.07
2018-02-05T19:02:47.384Z,77.18
2018-02-05T19:05:14.852Z,78.29
2018-02-05T19:07:43.277Z,76.49
2018-02-05T19:10:10.792Z,76.75
2018-02-05T19:12:38.325Z,77.72
2018-02-05T19:15:05.783Z,76.70
2018-02-05T19:17:33.258Z,77.60
2018-02-05T19:20:00.714Z,78.07
2018-02-05T19:22:28.649Z,78.28
2018-02-05T19:24:56.130Z,79.06
2018-02-05T19:27:23.623Z,78.05
2018-02-05T19:29:51.091Z,78.73
2018-02-05T19:32:18.568Z,79.15
2018-02-05T19:34:46.064Z,79.08
2018-02-05T19:37:13.524Z,79.34
2018-02-05T19:39:41.031Z,79.62
2018-02-05T19:42:08.498Z,79.76
2018-02-05T19:44:35.979Z,79.83
2018-02-05T19:47:03.451Z,80.29
2018-02-05T19:49:30.947Z,80.68
2018-02-05T19:51:58.424Z,80.80
2018-02-05T19:54:25.919Z,81.30
2018-02-05T19:56:53.384Z,81.59
2018-02-05T19:59:20.872Z,81.33
2018-02-05T20:01:48.351Z,81.44
2018-02-05T20:04:15.839Z,81.55
2018-02-05T20:06:43.307Z,82.18
2018-02-05T20:09:10.794Z,82.14
2018-02-05T20:11:38.259Z,82.21
2018-02-05T20:14:05.750Z,82.17
2018-02-05T20:16:33.211Z,82.21
2018-02-05T20:19:00.700Z,82.20
2018-02-05T20:21:28.168Z,82.09
2018-02-05T20:23:55.660Z,82.54
2018-02-05T20:26:23.122Z,82.85
2018-02-05T20:28:50.617Z,82.11
2018-02-05T20:31:18.084Z,81.54
2018-02-05T20:33:45.570Z,81.40
2018-02-05T20:36:13.030Z,81.22
2018-02-05T20:38:40.519Z,81.08
2018-02-05T20:41:07.995Z,80.57
2018-02-05T20:43:35.474Z,80.87
2018-02-05T20:46:02.952Z,81.28
2018-02-05T20:48:30.441Z,81.54
2018-02-05T20:50:57.911Z,81.33
2018-02-05T20:53:25.411Z,81.49
2018-02-05T20:55:52.886Z,81.72
2018-02-05T20:58:20.360Z,81.87
2018-02-05T21:00:47.842Z,81.65
2018-02-05T21:03:15.315Z,81.81
2018-02-05T21:05:42.806Z,81.35
2018-02-05T21:08:10.290Z,81.69
2018-02-05T21:10:37.778Z,81.41
2018-02-05T21:13:05.254Z,80.74
2018-02-05T21:15:32.735Z,80.81
2018-02-05T21:18:00.199Z,79.97
2018-02-05T21:20:27.686Z,80.34
2018-02-05T21:22:55.155Z,80.51
2018-02-05T21:25:22.635Z,80.70
2018-02-05T21:27:50.102Z,79.76
2018-02-05T21:30:17.589Z,79.89
2018-02-05T21:32:45.050Z,80.83
2018-02-05T21:35:12.535Z,79.80
2018-02-05T21:37:40.005Z,79.77
2018-02-05T21:40:07.507Z,79.65
2018-02-05T21:42:34.991Z,79.24
2018-02-05T21:45:02.470Z,79.42
2018-02-05T21:47:29.938Z,78.95
2018-02-05T21:49:57.423Z,78.77
2018-02-05T21:52:24.892Z,79.93
2018-02-05T21:54:52.374Z,79.64
2018-02-05T21:57:19.845Z,80.00
2018-02-05T21:59:47.322Z,80.25
2018-02-05T22:02:14.790Z,79.82
2018-02-05T22:04:42.279Z,79.92
2018-02-05T22:07:09.754Z,80.41
2018-02-05T22:09:37.239Z,80.85
2018-02-05T22:12:04.708Z,81.08
2018-02-05T22:14:32.194Z,81.39
2018-02-05T22:16:59.679Z,81.23
2018-02-05T22:19:27.146Z,81.40
2018-02-05T22:21:54.639Z,81.84
2018-02-05T22:24:22.457Z,82.41
2018-02-05T22:26:49.938Z,82.43
2018-02-05T22:29:17.403Z,82.38
2018-02-05T22:31:46.787Z,82.57
2018-02-05T22:34:14.276Z,82.49
2018-02-05T22:36:41.761Z,82.57
2018-02-05T22:39:11.350Z,82.45
2018-02-05T22:41:58.826Z,82.24
2018-02-05T22:44:26.308Z,81.87
2018-02-05T22:46:53.793Z,81.59
2018-02-05T22:51:55.114Z,82.25
2018-02-05T22:54:22.574Z,82.20
2018-02-05T22:56:50.059Z,82.06
2018-02-05T22:59:17.528Z,81.29
2018-02-05T23:01:45.023Z,80.96
2018-02-05T23:04:12.498Z,81.54
2018-02-05T23:06:39.980Z,81.76
2018-02-05T23:09:07.451Z,82.24
2018-02-05T23:11:34.940Z,82.56
2018-02-05T23:14:02.419Z,82.89
2018-02-05T23:16:29.908Z,82.95
2018-02-05T23:18:57.371Z,83.13
2018-02-05T23:21:24.867Z,82.96
2018-02-05T23:24:12.814Z,82.88
2018-02-05T23:26:40.308Z,82.91
2018-02-05T23:29:07.776Z,82.68
2018-02-05T23:31:35.260Z,83.08
2018-02-05T23:34:02.730Z,83.05
2018-02-05T23:36:30.219Z,83.12
2018-02-05T23:38:57.687Z,83.15
2018-02-05T23:41:25.168Z,82.51
2018-02-05T23:43:52.630Z,82.85
2018-02-05T23:46:20.115Z,83.22
2018-02-05T23:48:47.675Z,83.12
2018-02-05T23:51:15.165Z,83.18
2018-02-05T23:53:42.642Z,83.29
2018-02-05T23:56:10.136Z,83.05
2018-02-05T23:58:37.614Z,83.24
